Time;durP1;ratioP1;P1;durP2;ratioP2;P2;SDS_P1;SDS_P2;PMS_P1;PMS_P2;Temp;Humidity;BMP_temperature;BMP_pressure;BME280_temperature;BME280_humidity;BME280_pressure;Samples;Min_cycle;Max_cycle;Signal;HPM_P1;HPM_P2
2021/12/26 00:00:46;;;;;;;3.47;1.65;;;;;;;;;;5009520;28;20052;-70
2021/12/26 00:03:17;;;;;;;5.00;1.83;;;;;;;;;;5006215;28;20050;-70
2021/12/26 00:05:44;;;;;;;7.13;1.90;;;;;;;;;;4989073;28;20050;-71
2021/12/26 00:08:10;;;;;;;2.85;1.52;;;;;;;;;;4999369;28;20084;-71
2021/12/26 00:10:36;;;;;;;5.55;2.20;;;;;;;;;;5008430;28;20060;-71
2021/12/26 00:13:03;;;;;;;3.13;1.58;;;;;;;;;;4994248;28;20085;-70
2021/12/26 00:15:31;;;;;;;4.25;1.80;;;;;;;;;;5019028;28;20072;-70
2021/12/26 00:17:57;;;;;;;3.95;1.80;;;;;;;;;;5010221;28;20056;-70
2021/12/26 00:20:24;;;;;;;4.53;1.75;;;;;;;;;;5013859;28;20460;-70
2021/12/26 00:22:50;;;;;;;3.10;1.50;;;;;;;;;;5013061;28;20377;-71
2021/12/26 00:25:19;;;;;;;4.32;1.52;;;;;;;;;;5005991;28;20072;-71
2021/12/26 00:27:45;;;;;;;3.75;1.60;;;;;;;;;;5021605;28;20049;-71
2021/12/26 00:30:13;;;;;;;3.50;1.80;;;;;;;;;;5014414;28;20049;-72
2021/12/26 00:32:40;;;;;;;3.80;1.55;;;;;;;;;;5017381;28;20049;-71
2021/12/26 00:35:08;;;;;;;5.28;1.88;;;;;;;;;;5011214;28;20060;-71
2021/12/26 00:37:34;;;;;;;3.72;1.95;;;;;;;;;;5004091;28;20064;-71
2021/12/26 00:40:00;;;;;;;5.20;1.60;;;;;;;;;;5013450;28;20068;-71
2021/12/26 00:42:27;;;;;;;3.95;1.50;;;;;;;;;;5023802;28;20069;-71
2021/12/26 00:44:53;;;;;;;5.70;1.70;;;;;;;;;;5021889;28;20065;-71
2021/12/26 00:47:19;;;;;;;3.65;1.60;;;;;;;;;;5008950;28;20052;-71
2021/12/26 00:49:46;;;;;;;7.97;1.75;;;;;;;;;;5018738;28;20056;-72
2021/12/26 00:52:12;;;;;;;2.95;1.70;;;;;;;;;;5014236;28;20061;-71
2021/12/26 00:54:38;;;;;;;2.33;1.50;;;;;;;;;;5018898;28;20045;-70
2021/12/26 00:57:05;;;;;;;2.50;1.65;;;;;;;;;;4998725;28;20413;-71
2021/12/26 00:59:31;;;;;;;2.50;1.35;;;;;;;;;;5013969;28;20058;-71
2021/12/26 01:01:58;;;;;;;2.05;1.35;;;;;;;;;;5008226;28;20498;-70
2021/12/26 01:04:25;;;;;;;3.75;1.67;;;;;;;;;;4997232;28;20054;-70
2021/12/26 01:06:51;;;;;;;4.10;1.85;;;;;;;;;;5021256;28;20099;-71
2021/12/26 01:09:23;;;;;;;3.20;1.50;;;;;;;;;;5014224;28;20046;-70
2021/12/26 01:11:53;;;;;;;2.60;1.30;;;;;;;;;;5021743;28;20057;-71
2021/12/26 01:14:30;;;;;;;2.92;1.50;;;;;;;;;;5011101;28;20060;-70
2021/12/26 01:17:09;;;;;;;2.45;1.60;;;;;;;;;;5018549;28;20059;-70
2021/12/26 01:19:44;;;;;;;3.28;1.70;;;;;;;;;;5021977;28;20406;-70
2021/12/26 01:22:11;;;;;;;4.82;1.80;;;;;;;;;;5012839;28;20054;-70
2021/12/26 01:24:38;;;;;;;4.55;1.70;;;;;;;;;;5021689;28;20064;-70
2021/12/26 01:27:04;;;;;;;3.40;2.00;;;;;;;;;;4990628;28;20446;-70
2021/12/26 01:29:31;;;;;;;4.03;1.70;;;;;;;;;;5014103;28;20056;-70
2021/12/26 01:31:57;;;;;;;6.38;2.00;;;;;;;;;;4982873;28;20054;-70
2021/12/26 01:34:24;;;;;;;3.67;1.70;;;;;;;;;;5014259;28;20050;-70
2021/12/26 01:36:50;;;;;;;8.00;1.88;;;;;;;;;;5022031;28;20088;-70
2021/12/26 01:39:17;;;;;;;3.60;1.42;;;;;;;;;;5011417;28;20045;-70
2021/12/26 01:41:44;;;;;;;3.70;1.90;;;;;;;;;;5017155;28;20494;-70
2021/12/26 01:44:12;;;;;;;4.00;1.50;;;;;;;;;;5006256;28;20052;-70
2021/12/26 01:46:40;;;;;;;2.38;1.48;;;;;;;;;;5021403;28;20115;-70
2021/12/26 01:49:06;;;;;;;3.15;1.70;;;;;;;;;;4995322;28;20127;-72
2021/12/26 01:51:32;;;;;;;3.35;1.33;;;;;;;;;;5021410;28;20414;-71
2021/12/26 01:54:04;;;;;;;2.47;1.60;;;;;;;;;;5021203;28;20053;-70
2021/12/26 01:56:31;;;;;;;2.65;1.30;;;;;;;;;;5008949;28;20576;-71
2021/12/26 01:58:59;;;;;;;4.53;1.77;;;;;;;;;;5021730;28;20053;-70
2021/12/26 02:01:25;;;;;;;3.78;1.85;;;;;;;;;;5009621;28;20399;-70
2021/12/26 02:03:52;;;;;;;5.15;1.85;;;;;;;;;;5021661;28;20080;-70
2021/12/26 02:06:19;;;;;;;4.30;1.63;;;;;;;;;;5008417;28;21298;-71
2021/12/26 02:08:45;;;;;;;3.17;1.50;;;;;;;;;;5018780;28;20072;-71
2021/12/26 02:11:11;;;;;;;3.72;1.65;;;;;;;;;;5022292;28;20061;-70
2021/12/26 02:13:38;;;;;;;2.28;1.27;;;;;;;;;;5014900;28;20503;-71
2021/12/26 02:16:08;;;;;;;2.63;1.40;;;;;;;;;;5022245;28;20497;-71
2021/12/26 02:18:35;;;;;;;3.05;1.40;;;;;;;;;;5011247;28;20077;-70
2021/12/26 02:21:17;;;;;;;2.70;1.60;;;;;;;;;;5015721;28;20052;-71
2021/12/26 02:23:57;;;;;;;3.35;1.50;;;;;;;;;;5012340;28;20552;-70
2021/12/26 02:29:08;;;;;;;4.38;1.50;;;;;;;;;;4992440;28;20050;-70
2021/12/26 02:31:34;;;;;;;3.78;1.70;;;;;;;;;;5011058;28;20414;-70
2021/12/26 02:34:01;;;;;;;3.80;1.63;;;;;;;;;;5017074;28;20739;-70
2021/12/26 02:36:27;;;;;;;2.78;1.67;;;;;;;;;;5002399;28;20046;-70
2021/12/26 02:38:53;;;;;;;4.18;1.70;;;;;;;;;;5018548;28;20079;-70
2021/12/26 02:41:20;;;;;;;3.08;1.35;;;;;;;;;;4999865;28;20065;-70
2021/12/26 02:43:46;;;;;;;5.28;1.80;;;;;;;;;;5017754;28;20466;-70
2021/12/26 02:46:12;;;;;;;3.13;1.35;;;;;;;;;;5012816;28;20837;-69
2021/12/26 02:48:39;;;;;;;3.15;1.63;;;;;;;;;;5021696;28;20045;-69
2021/12/26 02:51:06;;;;;;;3.90;1.75;;;;;;;;;;5004677;28;20433;-69
2021/12/26 02:53:33;;;;;;;3.85;1.70;;;;;;;;;;5014522;28;20049;-70
2021/12/26 02:55:59;;;;;;;3.33;1.58;;;;;;;;;;5012032;28;20061;-69
2021/12/26 02:58:26;;;;;;;3.47;1.60;;;;;;;;;;5010406;28;20053;-69
2021/12/26 03:00:56;;;;;;;4.03;1.70;;;;;;;;;;5013566;28;20070;-69
2021/12/26 03:03:23;;;;;;;2.38;1.27;;;;;;;;;;5016705;28;20057;-68
2021/12/26 03:05:57;;;;;;;4.28;1.52;;;;;;;;;;5018477;28;20053;-69
2021/12/26 03:08:24;;;;;;;2.38;1.35;;;;;;;;;;5021504;28;20056;-68
2021/12/26 03:10:52;;;;;;;2.65;1.63;;;;;;;;;;5012132;28;20286;-68
2021/12/26 03:13:18;;;;;;;3.08;1.75;;;;;;;;;;5013463;28;20048;-70
2021/12/26 03:15:44;;;;;;;3.08;1.48;;;;;;;;;;5011129;28;20113;-69
2021/12/26 03:18:11;;;;;;;6.10;1.67;;;;;;;;;;5019837;28;20060;-69
2021/12/26 03:20:42;;;;;;;3.85;1.83;;;;;;;;;;5012879;28;20054;-69
2021/12/26 03:23:10;;;;;;;3.25;1.50;;;;;;;;;;5019486;28;20053;-69
2021/12/26 03:25:37;;;;;;;4.13;1.60;;;;;;;;;;5015915;28;20053;-68
2021/12/26 03:28:05;;;;;;;3.88;2.10;;;;;;;;;;5004906;28;20684;-69
2021/12/26 03:30:32;;;;;;;2.45;1.48;;;;;;;;;;5021463;28;20113;-69
2021/12/26 03:33:00;;;;;;;4.43;1.70;;;;;;;;;;5013005;28;20050;-69
2021/12/26 03:35:27;;;;;;;2.08;1.13;;;;;;;;;;4992146;28;20050;-67
2021/12/26 03:37:54;;;;;;;3.50;1.33;;;;;;;;;;5006469;28;20272;-67
2021/12/26 03:40:21;;;;;;;3.22;1.60;;;;;;;;;;5012653;28;20055;-69
2021/12/26 03:42:48;;;;;;;2.78;1.42;;;;;;;;;;5019080;28;20050;-68
2021/12/26 03:45:35;;;;;;;4.78;1.88;;;;;;;;;;5012175;28;20057;-68
2021/12/26 03:48:02;;;;;;;4.00;1.50;;;;;;;;;;5019079;28;20061;-68
2021/12/26 03:50:30;;;;;;;1.75;1.38;;;;;;;;;;4997723;28;20049;-68
2021/12/26 03:52:57;;;;;;;3.97;1.88;;;;;;;;;;5014876;28;20418;-67
2021/12/26 03:55:25;;;;;;;;;;;;;;;;;;4999842;28;20362;-68
2021/12/26 03:57:52;;;;;;;5.03;1.73;;;;;;;;;;5019709;28;20274;-68
2021/12/26 04:00:21;;;;;;;2.75;1.15;;;;;;;;;;5023323;28;20049;-67
2021/12/26 04:02:47;;;;;;;2.53;1.40;;;;;;;;;;4996441;28;20057;-68
2021/12/26 04:05:14;;;;;;;3.33;1.30;;;;;;;;;;5023241;28;20060;-68
2021/12/26 04:07:41;;;;;;;2.97;1.60;;;;;;;;;;5008201;28;20822;-68
2021/12/26 04:10:09;;;;;;;2.63;1.20;;;;;;;;;;5020320;28;20459;-68
2021/12/26 04:12:43;;;;;;;3.42;1.73;;;;;;;;;;5016239;28;20053;-68
2021/12/26 04:15:10;;;;;;;2.60;1.50;;;;;;;;;;5023629;28;20053;-68
2021/12/26 04:17:37;;;;;;;4.82;1.50;;;;;;;;;;5023501;28;20059;-68
2021/12/26 04:20:04;;;;;;;3.03;1.45;;;;;;;;;;5010471;28;20049;-68
2021/12/26 04:22:31;;;;;;;5.10;1.52;;;;;;;;;;5000689;28;20049;-69
2021/12/26 04:24:57;;;;;;;3.20;1.45;;;;;;;;;;5014903;28;20053;-68
2021/12/26 04:27:24;;;;;;;3.58;1.50;;;;;;;;;;5021945;28;20426;-69
2021/12/26 04:29:51;;;;;;;4.07;1.65;;;;;;;;;;5014414;28;20049;-69
2021/12/26 04:32:17;;;;;;;4.07;1.20;;;;;;;;;;5022330;28;20049;-68
2021/12/26 04:34:44;;;;;;;2.95;1.50;;;;;;;;;;5012132;28;20282;-68
2021/12/26 04:37:10;;;;;;;2.80;1.33;;;;;;;;;;5002151;28;20045;-68
2021/12/26 04:39:37;;;;;;;4.90;1.48;;;;;;;;;;5021403;28;20243;-68
2021/12/26 04:42:04;;;;;;;3.80;1.30;;;;;;;;;;4996621;28;20050;-68
2021/12/26 04:44:30;;;;;;;3.38;1.48;;;;;;;;;;5022826;28;20045;-68
2021/12/26 04:46:56;;;;;;;5.03;1.58;;;;;;;;;;5010142;28;20240;-68
2021/12/26 04:49:22;;;;;;;2.28;1.17;;;;;;;;;;4999295;28;20092;-68
2021/12/26 04:51:49;;;;;;;3.45;1.23;;;;;;;;;;5023117;28;20427;-67
2021/12/26 04:54:15;;;;;;;3.20;1.55;;;;;;;;;;5014183;28;20080;-68
2021/12/26 04:56:42;;;;;;;2.50;1.38;;;;;;;;;;5022706;28;20053;-68
2021/12/26 04:59:08;;;;;;;2.65;1.52;;;;;;;;;;5013049;28;20084;-68
2021/12/26 05:01:35;;;;;;;3.13;1.30;;;;;;;;;;5009130;28;20060;-68
2021/12/26 05:04:02;;;;;;;3.33;1.25;;;;;;;;;;5012206;28;20057;-69
2021/12/26 05:06:29;;;;;;;2.45;1.30;;;;;;;;;;5021223;28;20053;-68
2021/12/26 05:08:55;;;;;;;3.17;1.30;;;;;;;;;;5023612;28;20049;-67
2021/12/26 05:11:21;;;;;;;5.75;1.55;;;;;;;;;;4997888;28;20371;-68
2021/12/26 05:13:48;;;;;;;3.28;1.27;;;;;;;;;;5018646;28;20124;-67
2021/12/26 05:16:14;;;;;;;2.83;1.60;;;;;;;;;;5011226;28;20059;-68
2021/12/26 05:18:40;;;;;;;2.63;1.65;;;;;;;;;;5022414;28;20487;-68
2021/12/26 05:21:07;;;;;;;2.63;1.35;;;;;;;;;;5016070;28;20041;-68
2021/12/26 05:23:33;;;;;;;2.90;1.23;;;;;;;;;;5022426;28;20049;-68
2021/12/26 05:25:59;;;;;;;4.97;1.92;;;;;;;;;;5023197;28;20061;-68
2021/12/26 05:28:26;;;;;;;2.15;1.20;;;;;;;;;;5008203;28;20792;-68
2021/12/26 05:30:52;;;;;;;4.03;1.58;;;;;;;;;;5000109;28;20045;-68
2021/12/26 05:33:19;;;;;;;7.53;1.65;;;;;;;;;;5014454;28;20046;-68
2021/12/26 05:35:45;;;;;;;3.33;1.58;;;;;;;;;;5020560;28;20520;-67
2021/12/26 05:38:11;;;;;;;2.80;1.55;;;;;;;;;;5020213;28;20053;-69
2021/12/26 05:40:38;;;;;;;3.33;1.83;;;;;;;;;;5015651;28;20057;-68
2021/12/26 05:43:04;;;;;;;2.40;1.42;;;;;;;;;;5022586;28;20057;-68
2021/12/26 05:45:30;;;;;;;2.40;1.20;;;;;;;;;;5014546;28;20049;-68
2021/12/26 05:47:57;;;;;;;4.13;1.42;;;;;;;;;;5021527;28;20045;-69
2021/12/26 05:50:23;;;;;;;2.50;1.42;;;;;;;;;;5013911;28;20049;-69
2021/12/26 05:52:50;;;;;;;3.28;1.40;;;;;;;;;;5016416;28;20049;-69
2021/12/26 05:55:16;;;;;;;4.20;1.30;;;;;;;;;;5013759;28;20060;-69
2021/12/26 05:57:43;;;;;;;2.13;1.15;;;;;;;;;;5013566;28;20057;-69
2021/12/26 06:00:14;;;;;;;2.13;1.35;;;;;;;;;;5022751;28;20796;-69
2021/12/26 06:02:40;;;;;;;3.70;1.20;;;;;;;;;;5014046;28;20056;-68
2021/12/26 06:05:07;;;;;;;3.10;1.27;;;;;;;;;;5005361;28;20103;-69
2021/12/26 06:07:33;;;;;;;2.83;1.00;;;;;;;;;;5015421;28;20159;-68
2021/12/26 06:10:00;;;;;;;2.42;1.10;;;;;;;;;;5020696;28;20054;-69
2021/12/26 06:12:26;;;;;;;2.05;1.25;;;;;;;;;;5020646;28;20084;-69
2021/12/26 06:14:52;;;;;;;2.67;1.33;;;;;;;;;;5012044;28;20054;-69
2021/12/26 06:17:19;;;;;;;4.20;1.40;;;;;;;;;;5015635;28;20056;-68
2021/12/26 06:19:45;;;;;;;3.40;1.60;;;;;;;;;;5008827;28;20053;-68
2021/12/26 06:22:11;;;;;;;2.65;1.25;;;;;;;;;;5021150;28;20049;-68
2021/12/26 06:24:37;;;;;;;1.60;1.08;;;;;;;;;;5013859;28;20050;-69
2021/12/26 06:27:04;;;;;;;1.63;1.35;;;;;;;;;;5020651;28;20804;-69
2021/12/26 06:29:30;;;;;;;2.70;1.40;;;;;;;;;;5020289;28;20055;-69
2021/12/26 06:31:57;;;;;;;1.52;1.23;;;;;;;;;;4999345;28;20057;-69
2021/12/26 06:34:28;;;;;;;2.58;1.10;;;;;;;;;;5006797;28;20424;-69
2021/12/26 06:36:54;;;;;;;1.83;1.23;;;;;;;;;;5009528;28;20053;-68
2021/12/26 06:39:20;;;;;;;2.60;1.38;;;;;;;;;;5004507;28;20053;-69
2021/12/26 06:41:47;;;;;;;5.65;1.83;;;;;;;;;;4988506;28;20057;-68
2021/12/26 06:44:13;;;;;;;4.45;1.50;;;;;;;;;;5015987;28;20045;-68
2021/12/26 06:46:41;;;;;;;2.28;1.30;;;;;;;;;;5015234;28;20071;-68
2021/12/26 06:49:07;;;;;;;2.45;1.60;;;;;;;;;;5012370;28;20430;-69
2021/12/26 06:51:34;;;;;;;2.40;1.35;;;;;;;;;;5021325;28;20054;-69
2021/12/26 06:54:00;;;;;;;2.28;1.38;;;;;;;;;;5012260;28;20056;-68
2021/12/26 06:56:27;;;;;;;2.35;1.42;;;;;;;;;;5013578;28;20399;-69
2021/12/26 06:58:53;;;;;;;2.33;1.30;;;;;;;;;;5007464;28;20056;-70
2021/12/26 07:01:19;;;;;;;5.20;1.60;;;;;;;;;;5007694;28;20068;-69
2021/12/26 07:03:47;;;;;;;3.15;1.50;;;;;;;;;;5003401;28;20050;-70
2021/12/26 07:06:17;;;;;;;3.13;1.60;;;;;;;;;;4996807;28;20490;-69
2021/12/26 07:08:43;;;;;;;2.25;1.42;;;;;;;;;;5003274;28;20406;-69
2021/12/26 07:11:09;;;;;;;2.53;1.33;;;;;;;;;;5004642;28;20049;-69
2021/12/26 07:13:36;;;;;;;2.47;1.23;;;;;;;;;;5014558;28;20072;-69
2021/12/26 07:16:02;;;;;;;3.22;1.67;;;;;;;;;;4992078;28;20430;-69
2021/12/26 07:18:28;;;;;;;3.03;1.75;;;;;;;;;;5001901;28;20056;-69
2021/12/26 07:20:55;;;;;;;2.17;1.10;;;;;;;;;;5013021;28;20050;-69
2021/12/26 07:23:21;;;;;;;2.42;1.30;;;;;;;;;;5006841;28;20593;-68
2021/12/26 07:25:47;;;;;;;2.47;1.48;;;;;;;;;;4997953;28;20049;-69
2021/12/26 07:28:14;;;;;;;3.72;1.70;;;;;;;;;;5009475;28;20064;-69
2021/12/26 07:30:40;;;;;;;3.97;1.63;;;;;;;;;;5025474;28;20758;-68
2021/12/26 07:33:06;;;;;;;4.93;1.40;;;;;;;;;;5018537;28;20489;-70
2021/12/26 07:35:33;;;;;;;2.60;1.52;;;;;;;;;;5026718;28;20155;-70
2021/12/26 07:37:59;;;;;;;2.75;1.30;;;;;;;;;;5025068;28;20388;-69
2021/12/26 07:40:27;;;;;;;2.50;1.38;;;;;;;;;;5010784;28;20068;-70
2021/12/26 07:42:53;;;;;;;4.22;1.83;;;;;;;;;;5008293;28;20521;-70
2021/12/26 07:45:19;;;;;;;2.50;1.50;;;;;;;;;;5018980;28;20107;-69
2021/12/26 07:47:46;;;;;;;3.33;1.38;;;;;;;;;;5010631;28;20103;-69
2021/12/26 07:50:12;;;;;;;2.65;1.40;;;;;;;;;;5021363;28;20544;-69
2021/12/26 07:52:42;;;;;;;3.17;1.70;;;;;;;;;;5009231;28;20355;-70
2021/12/26 07:55:11;;;;;;;2.17;1.20;;;;;;;;;;5011469;28;20049;-69
2021/12/26 07:57:38;;;;;;;5.40;1.52;;;;;;;;;;5022549;28;20055;-69
2021/12/26 08:00:05;;;;;;;3.42;1.73;;;;;;;;;;5028480;28;20053;-69
2021/12/26 08:02:32;;;;;;;3.92;1.77;;;;;;;;;;5016884;28;20065;-69
2021/12/26 08:04:58;;;;;;;3.45;1.70;;;;;;;;;;5024415;28;20064;-69
2021/12/26 08:07:25;;;;;;;5.15;1.70;;;;;;;;;;5022945;28;20588;-70
2021/12/26 08:09:51;;;;;;;3.58;1.67;;;;;;;;;;5027018;28;20080;-69
2021/12/26 08:12:17;;;;;;;3.95;1.90;;;;;;;;;;5029488;28;20057;-69
2021/12/26 08:14:44;;;;;;;4.82;1.70;;;;;;;;;;5021765;28;20049;-69
2021/12/26 08:17:10;;;;;;;2.75;1.50;;;;;;;;;;5024086;28;20049;-69
2021/12/26 08:19:37;;;;;;;3.00;1.38;;;;;;;;;;5015955;28;20057;-69
2021/12/26 08:22:04;;;;;;;4.47;1.60;;;;;;;;;;5027453;28;20041;-69
2021/12/26 08:24:30;;;;;;;3.08;1.70;;;;;;;;;;5020322;28;20315;-70
2021/12/26 08:26:56;;;;;;;5.68;1.73;;;;;;;;;;5028812;28;20059;-70
2021/12/26 08:29:23;;;;;;;3.20;1.50;;;;;;;;;;5024432;28;20053;-70
2021/12/26 08:31:53;;;;;;;4.53;1.80;;;;;;;;;;4993606;28;20050;-69
2021/12/26 08:34:22;;;;;;;4.13;1.73;;;;;;;;;;5025581;28;20053;-69
2021/12/26 08:36:49;;;;;;;3.35;1.65;;;;;;;;;;5008347;28;20063;-68
2021/12/26 08:39:16;;;;;;;3.10;1.60;;;;;;;;;;5024153;28;20505;-69
2021/12/26 08:41:42;;;;;;;4.28;1.95;;;;;;;;;;5015351;28;20053;-68
2021/12/26 08:44:08;;;;;;;3.22;1.77;;;;;;;;;;5018930;28;20068;-69
2021/12/26 08:46:35;;;;;;;3.90;1.58;;;;;;;;;;5018730;28;20114;-69
2021/12/26 08:49:02;;;;;;;3.13;1.73;;;;;;;;;;5007577;28;20470;-69
2021/12/26 08:51:28;;;;;;;4.25;1.95;;;;;;;;;;5022284;28;20057;-70
2021/12/26 08:53:54;;;;;;;4.43;1.80;;;;;;;;;;5013615;28;20053;-69
2021/12/26 08:56:21;;;;;;;3.25;1.52;;;;;;;;;;5022485;28;20053;-69
2021/12/26 08:58:47;;;;;;;3.00;1.60;;;;;;;;;;4992316;28;20060;-68
2021/12/26 09:01:13;;;;;;;4.28;1.80;;;;;;;;;;5017001;28;20049;-69
2021/12/26 09:03:40;;;;;;;3.97;1.73;;;;;;;;;;5021307;28;20046;-69
2021/12/26 09:06:07;;;;;;;3.65;2.13;;;;;;;;;;5013573;28;20053;-69
2021/12/26 09:08:34;;;;;;;3.72;1.60;;;;;;;;;;5021939;28;20053;-69
2021/12/26 09:11:00;;;;;;;4.82;2.10;;;;;;;;;;5014077;28;20049;-69
2021/12/26 09:13:26;;;;;;;3.80;1.92;;;;;;;;;;5016047;28;20053;-69
2021/12/26 09:15:53;;;;;;;2.97;1.92;;;;;;;;;;5010392;28;20060;-69
2021/12/26 09:18:21;;;;;;;3.15;1.85;;;;;;;;;;5021154;28;20068;-69
2021/12/26 09:20:47;;;;;;;4.03;1.90;;;;;;;;;;5022908;28;20061;-68
2021/12/26 09:23:14;;;;;;;3.55;2.00;;;;;;;;;;5013633;28;20425;-69
2021/12/26 09:25:40;;;;;;;3.80;1.80;;;;;;;;;;5019573;28;20053;-68
2021/12/26 09:28:06;;;;;;;4.57;2.08;;;;;;;;;;4999736;28;20815;-70
2021/12/26 09:30:33;;;;;;;2.10;1.48;;;;;;;;;;5020600;28;20148;-70
2021/12/26 09:32:59;;;;;;;3.75;1.70;;;;;;;;;;4999271;28;20046;-69
2021/12/26 09:35:25;;;;;;;3.92;1.90;;;;;;;;;;5001361;28;20493;-68
2021/12/26 09:37:51;;;;;;;4.38;2.10;;;;;;;;;;5016505;28;20057;-69
2021/12/26 09:40:18;;;;;;;3.67;1.95;;;;;;;;;;5010772;28;20160;-69
2021/12/26 09:42:45;;;;;;;5.22;2.30;;;;;;;;;;5019709;28;20400;-69
2021/12/26 09:45:12;;;;;;;5.47;2.55;;;;;;;;;;5013568;28;20042;-69
2021/12/26 09:47:39;;;;;;;3.63;2.15;;;;;;;;;;5021672;28;20105;-69
2021/12/26 09:50:07;;;;;;;5.90;2.08;;;;;;;;;;4996554;28;20138;-70
2021/12/26 09:52:34;;;;;;;4.95;1.77;;;;;;;;;;5020474;28;20494;-70
2021/12/26 09:55:00;;;;;;;3.22;2.05;;;;;;;;;;5007418;28;20041;-70
2021/12/26 09:57:29;;;;;;;8.18;2.38;;;;;;;;;;4996095;28;20081;-70
2021/12/26 09:59:55;;;;;;;4.57;2.05;;;;;;;;;;5002876;28;20073;-72
2021/12/26 10:02:21;;;;;;;4.72;1.80;;;;;;;;;;5012510;28;20518;-70
2021/12/26 10:04:49;;;;;;;5.40;2.40;;;;;;;;;;5022583;28;20055;-70
2021/12/26 10:07:21;;;;;;;4.10;2.20;;;;;;;;;;5013733;28;20375;-69
2021/12/26 10:09:49;;;;;;;4.43;2.03;;;;;;;;;;5015717;28;20046;-70
2021/12/26 10:12:17;;;;;;;5.43;2.00;;;;;;;;;;5021268;28;20065;-70
2021/12/26 10:14:46;;;;;;;3.67;1.95;;;;;;;;;;5011927;28;20367;-69
2021/12/26 10:17:14;;;;;;;5.28;2.10;;;;;;;;;;5020739;28;20057;-69
2021/12/26 10:19:42;;;;;;;4.82;2.05;;;;;;;;;;5012366;28;20175;-69
2021/12/26 10:22:10;;;;;;;6.20;2.53;;;;;;;;;;5014485;28;20064;-69
2021/12/26 10:24:41;;;;;;;4.18;2.20;;;;;;;;;;5016348;28;20412;-68
2021/12/26 10:27:09;;;;;;;5.82;2.17;;;;;;;;;;5019511;28;20336;-69
2021/12/26 10:29:39;;;;;;;4.30;2.05;;;;;;;;;;5020427;28;20049;-69
2021/12/26 10:32:14;;;;;;;4.10;2.20;;;;;;;;;;5015006;28;20053;-68
2021/12/26 10:34:43;;;;;;;3.72;1.98;;;;;;;;;;5014287;28;20046;-68
2021/12/26 10:37:12;;;;;;;6.90;2.15;;;;;;;;;;5001570;28;20466;-70
2021/12/26 10:39:38;;;;;;;;;;;;;;;;;;5025411;28;20120;-69
2021/12/26 10:42:06;;;;;;;4.40;2.30;;;;;;;;;;5012209;28;20318;-69
2021/12/26 10:44:38;;;;;;;5.93;2.88;;;;;;;;;;5021259;28;20156;-69
2021/12/26 10:47:13;;;;;;;5.15;2.53;;;;;;;;;;5003868;28;20065;-69
2021/12/26 10:49:42;;;;;;;6.15;2.65;;;;;;;;;;5009728;28;20057;-69
2021/12/26 10:52:10;;;;;;;5.10;2.63;;;;;;;;;;5017838;28;20045;-70
2021/12/26 10:54:41;;;;;;;4.10;2.38;;;;;;;;;;4991398;28;20088;-69
2021/12/26 10:57:19;;;;;;;5.10;2.55;;;;;;;;;;5014821;28;20052;-69
2021/12/26 10:59:47;;;;;;;3.92;2.10;;;;;;;;;;5006858;28;20509;-69
2021/12/26 11:02:21;;;;;;;4.47;2.38;;;;;;;;;;5014872;28;20498;-69
2021/12/26 11:04:55;;;;;;;10.57;4.22;;;;;;;;;;5014588;28;20049;-69
2021/12/26 11:07:21;;;;;;;7.85;3.00;;;;;;;;;;5014194;28;20045;-70
2021/12/26 11:10:00;;;;;;;7.45;3.03;;;;;;;;;;5020156;28;20049;-69
2021/12/26 11:12:34;;;;;;;5.93;2.72;;;;;;;;;;5012355;28;20053;-70
2021/12/26 11:15:03;;;;;;;4.65;2.83;;;;;;;;;;5020232;28;20573;-69
2021/12/26 11:17:34;;;;;;;6.47;2.70;;;;;;;;;;5006603;28;20144;-69
2021/12/26 11:20:00;;;;;;;5.13;2.85;;;;;;;;;;5010899;28;20048;-69
2021/12/26 11:22:27;;;;;;;4.10;2.38;;;;;;;;;;5009372;28;20505;-70
2021/12/26 11:24:53;;;;;;;5.10;2.17;;;;;;;;;;5001999;28;20045;-69
2021/12/26 11:27:20;;;;;;;7.03;2.67;;;;;;;;;;5013927;28;20045;-69
2021/12/26 11:29:48;;;;;;;6.88;2.72;;;;;;;;;;5007360;28;20049;-69
2021/12/26 11:32:16;;;;;;;6.90;3.22;;;;;;;;;;5016464;28;20060;-69
2021/12/26 11:34:46;;;;;;;5.80;2.50;;;;;;;;;;5003783;28;20363;-70
2021/12/26 11:37:13;;;;;;;7.20;3.42;;;;;;;;;;5011263;28;20045;-69
2021/12/26 11:39:40;;;;;;;4.85;3.03;;;;;;;;;;5007296;28;20045;-69
2021/12/26 11:42:21;;;;;;;8.23;3.58;;;;;;;;;;4992951;28;20545;-70
2021/12/26 11:44:47;;;;;;;6.28;3.17;;;;;;;;;;5014737;28;20050;-69
2021/12/26 11:47:21;;;;;;;5.75;3.10;;;;;;;;;;5007054;28;20046;-69
2021/12/26 11:49:49;;;;;;;6.65;3.60;;;;;;;;;;5026510;28;20061;-69
2021/12/26 11:52:25;;;;;;;7.90;3.47;;;;;;;;;;5011446;28;20427;-70
2021/12/26 11:55:03;;;;;;;7.05;3.55;;;;;;;;;;5013417;28;20104;-69
2021/12/26 11:57:36;;;;;;;6.40;3.25;;;;;;;;;;5002030;28;20079;-69
2021/12/26 12:00:03;;;;;;;5.22;2.83;;;;;;;;;;5012419;28;20046;-70
2021/12/26 12:02:53;;;;;;;7.10;3.50;;;;;;;;;;5011425;28;20954;-70
2021/12/26 12:05:30;;;;;;;6.68;3.00;;;;;;;;;;5017487;28;20073;-69
2021/12/26 12:07:58;;;;;;;8.32;3.83;;;;;;;;;;5019203;28;20069;-70
2021/12/26 12:10:36;;;;;;;5.95;3.53;;;;;;;;;;5010425;28;20539;-70
2021/12/26 12:13:03;;;;;;;7.60;3.90;;;;;;;;;;5012980;28;20498;-70
2021/12/26 12:15:50;;;;;;;7.95;5.82;;;;;;;;;;5010117;28;20046;-70
2021/12/26 12:18:18;;;;;;;9.60;6.53;;;;;;;;;;5024435;28;20486;-70
2021/12/26 12:20:45;;;;;;;7.60;4.55;;;;;;;;;;5014570;28;20060;-69
2021/12/26 12:23:16;;;;;;;7.88;4.57;;;;;;;;;;5023299;28;20057;-70
2021/12/26 12:25:49;;;;;;;6.95;3.50;;;;;;;;;;5011161;28;20510;-70
2021/12/26 12:28:17;;;;;;;8.73;4.10;;;;;;;;;;4997894;28;20058;-69
2021/12/26 12:30:45;;;;;;;5.97;3.43;;;;;;;;;;5023238;28;20050;-70
2021/12/26 12:33:17;;;;;;;9.20;3.60;;;;;;;;;;5015722;28;20302;-70
2021/12/26 12:35:49;;;;;;;7.10;4.00;;;;;;;;;;5009766;28;20049;-70
2021/12/26 12:38:22;;;;;;;7.43;3.60;;;;;;;;;;4998462;28;20072;-70
2021/12/26 12:40:48;;;;;;;7.47;4.32;;;;;;;;;;5005740;28;20050;-69
2021/12/26 12:43:16;;;;;;;8.60;3.80;;;;;;;;;;4995940;28;20049;-69
2021/12/26 12:45:51;;;;;;;6.25;3.63;;;;;;;;;;5023058;28;20055;-70
2021/12/26 12:48:21;;;;;;;7.32;3.30;;;;;;;;;;5007904;28;20065;-70
2021/12/26 12:50:48;;;;;;;6.25;3.35;;;;;;;;;;4998615;28;20053;-71
2021/12/26 12:53:32;;;;;;;7.85;3.88;;;;;;;;;;5000765;28;20053;-71
2021/12/26 12:55:59;;;;;;;7.20;4.03;;;;;;;;;;4987683;28;20052;-70
2021/12/26 12:58:31;;;;;;;6.45;4.20;;;;;;;;;;5003872;28;20054;-70
2021/12/26 13:00:58;;;;;;;7.03;4.03;;;;;;;;;;4997025;28;20517;-70
2021/12/26 13:03:25;;;;;;;8.35;4.20;;;;;;;;;;4992988;28;20057;-70
2021/12/26 13:05:52;;;;;;;8.27;3.88;;;;;;;;;;5005381;28;20049;-70
2021/12/26 13:08:19;;;;;;;7.15;3.67;;;;;;;;;;4989858;28;20406;-70
2021/12/26 13:10:54;;;;;;;9.98;3.83;;;;;;;;;;5002977;28;20065;-70
2021/12/26 13:13:21;;;;;;;10.05;5.00;;;;;;;;;;5004028;28;20046;-69
2021/12/26 13:15:59;;;;;;;6.93;4.45;;;;;;;;;;5007613;28;20046;-70
2021/12/26 13:18:27;;;;;;;7.50;4.13;;;;;;;;;;5004100;28;20140;-70
2021/12/26 13:20:58;;;;;;;9.57;4.35;;;;;;;;;;4997960;28;20060;-70
2021/12/26 13:23:25;;;;;;;7.18;4.20;;;;;;;;;;4991605;28;20666;-69
2021/12/26 13:25:52;;;;;;;8.48;4.65;;;;;;;;;;5004729;28;20045;-70
2021/12/26 13:28:20;;;;;;;7.32;4.60;;;;;;;;;;4999373;28;20050;-70
2021/12/26 13:30:48;;;;;;;;;;;;;;;;;;4997370;28;20075;-70
2021/12/26 13:33:15;;;;;;;8.57;4.20;;;;;;;;;;5009359;28;19948;-70
2021/12/26 13:35:41;;;;;;;9.30;4.65;;;;;;;;;;4993889;28;20445;-70
2021/12/26 13:38:08;;;;;;;8.05;5.35;;;;;;;;;;4998791;28;20163;-71
2021/12/26 13:40:44;;;;;;;9.73;4.60;;;;;;;;;;5006536;28;20049;-70
2021/12/26 13:43:11;;;;;;;9.02;5.40;;;;;;;;;;5014386;28;20446;-70
2021/12/26 13:45:41;;;;;;;7.40;4.43;;;;;;;;;;5018188;28;20050;-70
2021/12/26 13:48:09;;;;;;;8.32;4.55;;;;;;;;;;5007579;28;20960;-70
2021/12/26 13:50:56;;;;;;;7.72;4.43;;;;;;;;;;5012146;28;20077;-70
2021/12/26 13:53:22;;;;;;;7.88;4.45;;;;;;;;;;5004438;28;20046;-71
2021/12/26 13:55:53;;;;;;;9.18;4.85;;;;;;;;;;5011912;28;20103;-70
2021/12/26 13:58:20;;;;;;;7.95;4.40;;;;;;;;;;5013613;28;20049;-70
2021/12/26 14:00:51;;;;;;;9.23;5.97;;;;;;;;;;5002877;28;20340;-70
2021/12/26 14:03:17;;;;;;;8.18;5.10;;;;;;;;;;5004542;28;21125;-69
2021/12/26 14:05:44;;;;;;;9.50;5.10;;;;;;;;;;5017091;28;20045;-69
2021/12/26 14:08:17;;;;;;;8.82;4.63;;;;;;;;;;5017989;28;20160;-69
2021/12/26 14:10:43;;;;;;;9.18;5.40;;;;;;;;;;5001445;28;20307;-70
2021/12/26 14:13:11;;;;;;;10.82;6.10;;;;;;;;;;5016331;28;20546;-70
2021/12/26 14:15:45;;;;;;;8.27;4.28;;;;;;;;;;4991882;28;20061;-70
2021/12/26 14:18:15;;;;;;;12.85;5.25;;;;;;;;;;5010386;28;20049;-70
2021/12/26 14:20:52;;;;;;;9.02;6.05;;;;;;;;;;5009675;28;20137;-69
2021/12/26 14:23:45;;;;;;;9.00;4.82;;;;;;;;;;5015579;28;20057;-70
2021/12/26 14:26:16;;;;;;;10.48;6.43;;;;;;;;;;5012556;28;20461;-70
2021/12/26 14:28:44;;;;;;;8.73;5.18;;;;;;;;;;5016199;28;20057;-69
2021/12/26 14:31:25;;;;;;;7.93;4.90;;;;;;;;;;5013382;28;20049;-69
2021/12/26 14:33:52;;;;;;;10.02;5.35;;;;;;;;;;5004436;28;20058;-69
2021/12/26 14:36:19;;;;;;;12.82;8.80;;;;;;;;;;5000884;28;20045;-69
2021/12/26 14:38:51;;;;;;;8.90;5.68;;;;;;;;;;5016383;28;20057;-69
2021/12/26 14:41:17;;;;;;;9.63;5.75;;;;;;;;;;5005757;28;20049;-69
2021/12/26 14:43:44;;;;;;;14.07;6.80;;;;;;;;;;4990109;28;20057;-70
2021/12/26 14:46:10;;;;;;;10.50;5.95;;;;;;;;;;4997006;28;20067;-70
2021/12/26 14:48:39;;;;;;;9.63;5.68;;;;;;;;;;4995389;28;20058;-70
2021/12/26 14:51:06;;;;;;;;;;;;;;;;;;5014194;28;20049;-70